Ellenton, Florida
Current Conditions -  °F | °C
As of 12:53 AM on Saturday 29 Nov 2014 (Local Time) from KSRQ Reporting Station
Clear Clear  
Wind Chill: 44°   Ceiling: Unl
Heat Index: 48°   Visibility: 10mi
Dew Point: 43°   Wind: 8mph
Humidity: 83%   Direction: 50°NE
Pressure: 30.25"   Gusts: NA
Location:  27.52°N, 82.53°W
Report Text: KSRQ 290553Z 05007KT 10SM CLR 09/06 A3025 RMK AO2 SLP242 T00890061 10111 20089 58008
Loading
Personal Weather Stations






























Interactive Weather Map New forecast layout! Learn more

10-Day Weather Forecast

Advertisements
Track Severe Weather on mobile